createdAt,value
2023-01-13T00:00:16.625Z,15.50
2023-01-13T00:02:43.910Z,15.73
2023-01-13T00:05:11.444Z,14.13
2023-01-13T00:07:40.301Z,12.33
2023-01-13T00:10:10.036Z,13.67
2023-01-13T00:12:43.685Z,13.27
2023-01-13T00:15:11.729Z,13.03
2023-01-13T00:17:39.157Z,13.73
2023-01-13T00:20:07.307Z,14.00
2023-01-13T00:22:35.509Z,11.97
2023-01-13T00:25:04.610Z,15.33
2023-01-13T00:27:31.995Z,14.37
2023-01-13T00:29:59.584Z,10.53
2023-01-13T00:32:27.312Z,11.87
2023-01-13T00:34:54.617Z,14.53
2023-01-13T00:37:21.948Z,14.80
2023-01-13T00:39:49.043Z,12.20
2023-01-13T00:42:38.952Z,17.57
2023-01-13T00:45:06.475Z,10.90
2023-01-13T00:47:33.524Z,14.67
2023-01-13T00:50:00.563Z,14.40
2023-01-13T00:52:27.575Z,12.70
2023-01-13T00:54:54.507Z,12.83
2023-01-13T00:57:21.433Z,13.93
2023-01-13T00:59:49.622Z,16.77
2023-01-13T01:02:16.829Z,14.00
2023-01-13T01:04:43.886Z,14.60
2023-01-13T01:07:10.866Z,13.87
2023-01-13T01:09:39.571Z,12.60
2023-01-13T01:12:07.055Z,11.67
2023-01-13T01:14:34.080Z,12.20
2023-01-13T01:17:01.095Z,13.97
2023-01-13T01:19:28.142Z,17.20
2023-01-13T01:21:55.140Z,14.00
2023-01-13T01:24:22.204Z,13.30
2023-01-13T01:26:49.180Z,12.40
2023-01-13T01:29:17.313Z,12.57
2023-01-13T01:31:44.839Z,17.00
2023-01-13T01:34:11.883Z,16.43
2023-01-13T01:36:39.527Z,12.80
2023-01-13T01:39:06.989Z,13.70
2023-01-13T01:41:36.025Z,14.17
2023-01-13T01:44:43.472Z,13.33
2023-01-13T01:47:15.531Z,13.70
2023-01-13T01:49:44.353Z,11.43
2023-01-13T01:52:46.680Z,15.23
2023-01-13T01:55:19.947Z,11.87
2023-01-13T01:58:13.109Z,13.60
2023-01-13T02:00:40.152Z,11.80
2023-01-13T02:03:08.810Z,12.27
2023-01-13T02:05:35.989Z,11.40
2023-01-13T02:08:04.065Z,12.70
2023-01-13T02:10:32.325Z,15.90
2023-01-13T02:13:05.271Z,13.93
2023-01-13T02:15:42.410Z,13.83
2023-01-13T02:18:18.316Z,13.37
2023-01-13T02:21:13.401Z,15.47
2023-01-13T02:24:22.014Z,11.70
2023-01-13T02:30:15.450Z,13.33
2023-01-13T02:32:59.524Z,13.50
2023-01-13T02:35:56.536Z,14.47
2023-01-13T02:38:31.729Z,13.20
2023-01-13T02:41:25.214Z,12.97
2023-01-13T02:44:10.671Z,13.03
2023-01-13T02:46:53.861Z,12.60
2023-01-13T02:49:39.395Z,13.03
2023-01-13T02:52:22.374Z,10.77
2023-01-13T02:54:55.401Z,12.50
2023-01-13T02:57:24.065Z,12.70
2023-01-13T02:59:54.390Z,10.67
2023-01-13T03:02:23.233Z,11.07
2023-01-13T03:04:50.183Z,11.80
2023-01-13T03:07:22.993Z,12.97
2023-01-13T03:10:16.623Z,13.27
2023-01-13T03:12:52.105Z,14.90
2023-01-13T03:15:40.462Z,14.03
2023-01-13T03:18:18.748Z,11.47
2023-01-13T03:21:20.066Z,11.17
2023-01-13T03:24:33.831Z,11.80
2023-01-13T03:27:14.892Z,16.23
2023-01-13T03:29:49.897Z,13.50
2023-01-13T03:32:37.373Z,12.67
2023-01-13T03:35:23.344Z,12.02
2023-01-13T03:38:25.418Z,13.63
2023-01-13T03:41:01.439Z,11.90
2023-01-13T03:43:53.666Z,15.33
2023-01-13T03:46:32.758Z,12.80
2023-01-13T03:49:03.182Z,12.30
2023-01-13T03:51:33.993Z,14.37
2023-01-13T03:54:05.217Z,11.53
2023-01-13T03:56:53.843Z,13.23
2023-01-13T03:59:25.829Z,12.23
2023-01-13T04:02:01.712Z,14.30
2023-01-13T04:04:44.094Z,18.13
2023-01-13T04:07:29.271Z,13.17
2023-01-13T04:10:00.282Z,14.20
2023-01-13T04:12:52.250Z,10.30
2023-01-13T04:15:22.412Z,12.00
2023-01-13T04:17:50.769Z,9.17
2023-01-13T04:20:18.194Z,14.20
2023-01-13T04:22:45.151Z,10.23
2023-01-13T04:25:12.617Z,13.20
2023-01-13T04:27:40.319Z,9.63
2023-01-13T04:30:07.974Z,9.93
2023-01-13T04:32:34.921Z,11.63
2023-01-13T04:35:01.968Z,10.07
2023-01-13T04:37:30.724Z,11.50
2023-01-13T04:39:58.485Z,12.67
2023-01-13T04:42:25.464Z,11.27
2023-01-13T04:44:52.502Z,8.77
2023-01-13T04:47:19.499Z,12.70
2023-01-13T04:49:46.439Z,9.97
2023-01-13T04:52:13.506Z,11.23
2023-01-13T04:54:40.603Z,9.00
2023-01-13T04:57:07.592Z,10.27
2023-01-13T04:59:34.759Z,8.63
2023-01-13T05:02:01.907Z,10.70
2023-01-13T05:04:28.949Z,9.93
2023-01-13T05:06:55.934Z,9.03
2023-01-13T05:09:22.857Z,9.60
2023-01-13T05:12:08.301Z,8.93
2023-01-13T05:14:54.061Z,9.47
2023-01-13T05:17:24.646Z,9.83
2023-01-13T05:19:51.670Z,9.13
2023-01-13T05:22:37.260Z,9.23
2023-01-13T05:25:23.100Z,10.10
2023-01-13T05:27:55.566Z,9.07
2023-01-13T05:30:25.100Z,11.27
2023-01-13T05:32:52.137Z,8.20
2023-01-13T05:35:19.557Z,9.30
2023-01-13T05:37:47.406Z,10.20
2023-01-13T05:40:35.195Z,11.10
2023-01-13T05:43:20.202Z,8.33
2023-01-13T05:45:57.661Z,8.63
2023-01-13T05:48:36.847Z,7.70
2023-01-13T05:51:06.063Z,11.00
2023-01-13T05:53:33.407Z,7.90
2023-01-13T05:56:00.763Z,8.73
2023-01-13T05:58:28.141Z,8.97
2023-01-13T06:01:00.992Z,8.30
2023-01-13T06:03:28.023Z,6.87
2023-01-13T06:05:59.349Z,7.50
2023-01-13T06:08:26.483Z,7.73
2023-01-13T06:10:53.612Z,8.40
2023-01-13T06:13:20.657Z,8.10
2023-01-13T06:15:47.713Z,7.63
2023-01-13T06:18:14.777Z,7.63
2023-01-13T06:20:41.775Z,8.60
2023-01-13T06:23:11.001Z,7.60
2023-01-13T06:25:53.146Z,8.20
2023-01-13T06:28:20.302Z,7.23
2023-01-13T06:30:52.745Z,8.43
2023-01-13T06:33:24.189Z,7.70
2023-01-13T06:35:56.388Z,7.43
2023-01-13T06:38:26.960Z,7.47
2023-01-13T06:40:54.892Z,7.57
2023-01-13T06:43:22.236Z,7.70
2023-01-13T06:45:54.934Z,7.77
2023-01-13T06:48:28.422Z,8.97
2023-01-13T06:50:55.637Z,9.20
2023-01-13T06:53:22.637Z,10.60
2023-01-13T06:55:49.611Z,6.80
2023-01-13T06:58:16.758Z,7.73
2023-01-13T07:00:43.855Z,6.90
2023-01-13T07:03:16.563Z,9.10
2023-01-13T07:05:50.701Z,7.93
2023-01-13T07:08:17.668Z,8.10
2023-01-13T07:10:44.699Z,9.83
2023-01-13T07:13:30.212Z,8.10
2023-01-13T07:15:59.319Z,9.00
2023-01-13T07:18:28.683Z,9.03
2023-01-13T07:20:57.703Z,7.07
2023-01-13T07:23:27.228Z,8.70
2023-01-13T07:25:58.613Z,11.20
2023-01-13T07:28:26.304Z,6.77
2023-01-13T07:30:53.337Z,10.47
2023-01-13T07:33:20.564Z,9.53
2023-01-13T07:35:48.599Z,7.70
2023-01-13T07:38:16.078Z,9.73
2023-01-13T07:40:43.045Z,7.17
2023-01-13T07:43:31.651Z,6.43
2023-01-13T07:46:00.915Z,8.13
2023-01-13T07:48:28.307Z,7.60
2023-01-13T07:50:56.087Z,7.37
2023-01-13T07:53:25.226Z,7.27
2023-01-13T07:55:56.974Z,11.50
2023-01-13T07:58:25.007Z,9.57
2023-01-13T08:00:52.681Z,8.43
2023-01-13T08:03:20.020Z,11.37
2023-01-13T08:05:47.587Z,10.70
2023-01-13T08:08:15.029Z,8.87
2023-01-13T08:10:42.403Z,9.50
2023-01-13T08:13:21.191Z,7.90
2023-01-13T08:15:53.793Z,9.17
2023-01-13T08:18:22.513Z,9.60
2023-01-13T08:20:52.582Z,7.97
2023-01-13T08:23:20.540Z,7.90
2023-01-13T08:25:47.974Z,8.33
2023-01-13T08:28:16.647Z,12.30
2023-01-13T08:30:43.883Z,8.60
2023-01-13T08:33:12.254Z,9.47
2023-01-13T08:35:41.174Z,11.03
2023-01-13T08:38:08.434Z,8.07
2023-01-13T08:40:35.572Z,9.53
2023-01-13T08:43:03.121Z,9.57
2023-01-13T08:45:30.172Z,7.73
2023-01-13T08:47:57.395Z,7.53
2023-01-13T08:50:24.376Z,9.13
2023-01-13T08:52:51.384Z,9.87
2023-01-13T08:55:18.421Z,10.10
2023-01-13T08:57:45.606Z,7.33
2023-01-13T09:00:14.036Z,8.80
2023-01-13T09:02:41.103Z,8.87
2023-01-13T09:05:09.221Z,7.73
2023-01-13T09:07:38.123Z,8.20
2023-01-13T09:10:06.860Z,8.17
2023-01-13T09:12:52.413Z,9.20
2023-01-13T09:15:19.523Z,9.03
2023-01-13T09:17:48.005Z,8.90
2023-01-13T09:20:15.044Z,13.87
2023-01-13T09:22:42.178Z,8.80
2023-01-13T09:25:10.014Z,7.40
2023-01-13T09:27:37.078Z,7.80
2023-01-13T09:30:05.215Z,7.80
2023-01-13T09:32:32.925Z,8.23
2023-01-13T09:35:00.180Z,7.53
2023-01-13T09:37:36.682Z,7.73
2023-01-13T09:40:15.503Z,9.07
2023-01-13T09:43:11.119Z,8.93
2023-01-13T09:45:50.445Z,7.33
2023-01-13T09:48:52.089Z,7.30
2023-01-13T09:51:28.083Z,7.07
2023-01-13T09:54:00.789Z,8.23
2023-01-13T09:56:27.912Z,9.37
2023-01-13T09:58:54.958Z,8.27
2023-01-13T10:01:46.129Z,12.03
2023-01-13T10:04:15.445Z,9.97
2023-01-13T10:06:47.663Z,7.43
2023-01-13T10:09:25.943Z,10.27
2023-01-13T10:12:15.024Z,11.63
2023-01-13T10:14:48.346Z,10.93
2023-01-13T10:17:39.907Z,9.83
2023-01-13T10:20:22.680Z,11.00
2023-01-13T10:23:04.698Z,9.40
2023-01-13T10:25:39.506Z,9.10
2023-01-13T10:28:12.724Z,10.37
2023-01-13T10:30:43.557Z,9.70
2023-01-13T10:33:20.675Z,15.70
2023-01-13T10:35:56.666Z,10.77
2023-01-13T10:38:35.748Z,10.07
2023-01-13T10:41:06.119Z,10.30
2023-01-13T10:43:33.196Z,9.47
2023-01-13T10:46:02.904Z,9.40
2023-01-13T10:48:57.075Z,10.87
2023-01-13T10:51:29.106Z,8.03
2023-01-13T10:54:20.338Z,10.30
2023-01-13T10:56:47.464Z,10.37
2023-01-13T10:59:27.510Z,8.50
2023-01-13T11:02:25.229Z,11.10
2023-01-13T11:04:55.277Z,10.23
2023-01-13T11:07:26.821Z,9.73
2023-01-13T11:10:16.515Z,10.20
2023-01-13T11:13:01.548Z,8.17
2023-01-13T11:15:46.434Z,9.13
2023-01-13T11:18:37.112Z,11.93
2023-01-13T11:21:12.127Z,8.60
2023-01-13T11:23:49.028Z,8.83
2023-01-13T11:26:24.033Z,8.55
2023-01-13T11:29:01.331Z,8.67
2023-01-13T11:31:36.275Z,11.97
2023-01-13T11:34:21.258Z,9.73
2023-01-13T11:36:52.350Z,11.53
2023-01-13T11:39:40.754Z,11.10
2023-01-13T11:42:24.262Z,13.23
2023-01-13T11:44:56.120Z,11.80
2023-01-13T11:47:26.237Z,11.23
2023-01-13T11:49:53.416Z,11.70
2023-01-13T11:52:41.661Z,8.57
2023-01-13T11:55:28.612Z,9.20
2023-01-13T11:58:01.493Z,10.50
2023-01-13T12:00:33.587Z,10.80
2023-01-13T12:03:07.973Z,12.07
2023-01-13T12:05:41.489Z,9.30
2023-01-13T12:08:26.533Z,13.97
2023-01-13T12:11:56.895Z,9.37
2023-01-13T12:15:03.142Z,9.70
2023-01-13T12:18:15.815Z,7.17
2023-01-13T12:21:00.124Z,7.07
2023-01-13T12:23:30.132Z,13.37
2023-01-13T12:26:05.950Z,9.27
2023-01-13T12:28:40.072Z,7.40
2023-01-13T12:31:09.553Z,10.53
2023-01-13T12:34:27.533Z,10.23
2023-01-13T12:37:09.473Z,8.97
2023-01-13T12:40:17.607Z,8.03
2023-01-13T12:43:17.265Z,9.02
2023-01-13T12:45:44.294Z,9.23
2023-01-13T12:48:45.019Z,9.60
2023-01-13T12:51:42.122Z,10.77
2023-01-13T12:54:30.698Z,8.53
2023-01-13T12:56:59.245Z,8.77
2023-01-13T12:59:26.218Z,8.50
2023-01-13T13:02:11.591Z,9.73
2023-01-13T13:04:53.428Z,9.43
2023-01-13T13:07:43.791Z,9.67
2023-01-13T13:10:16.515Z,10.27
2023-01-13T13:13:01.841Z,10.37
2023-01-13T13:15:36.291Z,9.33
2023-01-13T13:18:24.758Z,10.87
2023-01-13T13:21:11.002Z,12.17
2023-01-13T13:23:48.901Z,10.80
2023-01-13T13:26:20.341Z,9.83
2023-01-13T13:29:02.292Z,9.60
2023-01-13T13:31:37.995Z,10.33
2023-01-13T13:34:32.743Z,11.87
2023-01-13T13:37:12.190Z,13.93
2023-01-13T13:40:01.118Z,11.60
2023-01-13T13:42:57.218Z,11.43
2023-01-13T13:45:45.222Z,9.67
2023-01-13T13:48:19.266Z,10.30
2023-01-13T13:50:55.418Z,9.37
2023-01-13T13:53:24.428Z,12.70
2023-01-13T13:55:54.804Z,9.27
2023-01-13T13:58:23.041Z,9.97
2023-01-13T14:00:50.033Z,12.03
2023-01-13T14:03:31.543Z,9.60
2023-01-13T14:06:00.957Z,13.67
2023-01-13T14:08:30.974Z,16.00
2023-01-13T14:10:57.986Z,11.70
2023-01-13T14:13:31.239Z,12.50
2023-01-13T14:16:04.232Z,10.00
2023-01-13T14:18:34.462Z,11.07
2023-01-13T14:21:19.849Z,11.70
2023-01-13T14:23:56.919Z,13.20
2023-01-13T14:28:53.680Z,11.23
2023-01-13T14:31:21.131Z,14.63
2023-01-13T14:33:51.781Z,13.27
2023-01-13T14:36:31.533Z,13.00
2023-01-13T14:39:04.575Z,12.07
2023-01-13T14:41:36.102Z,11.27
2023-01-13T14:44:29.334Z,11.87
2023-01-13T14:46:59.054Z,13.13
2023-01-13T14:49:36.181Z,12.03
2023-01-13T14:54:58.565Z,10.43
2023-01-13T14:57:33.153Z,12.07
2023-01-13T15:00:15.377Z,14.77
2023-01-13T15:02:57.518Z,12.43
2023-01-13T15:05:27.298Z,13.30
2023-01-13T15:08:00.918Z,11.10
2023-01-13T15:10:31.461Z,12.93
2023-01-13T15:13:01.167Z,13.13
2023-01-13T15:15:33.932Z,10.10
2023-01-13T15:18:17.067Z,15.63
2023-01-13T15:20:44.997Z,12.40
2023-01-13T15:23:12.354Z,12.77
2023-01-13T15:25:41.808Z,12.47
2023-01-13T15:28:20.173Z,14.87
2023-01-13T15:30:48.946Z,13.00
2023-01-13T15:33:16.999Z,15.80
2023-01-13T15:35:46.771Z,12.00
2023-01-13T15:38:16.760Z,13.17
2023-01-13T15:40:43.813Z,12.80
2023-01-13T15:43:39.627Z,12.40
2023-01-13T15:46:34.575Z,14.63
2023-01-13T15:49:21.609Z,13.07
2023-01-13T15:51:49.901Z,12.02
2023-01-13T15:54:17.231Z,12.60
2023-01-13T15:56:44.192Z,13.87
2023-01-13T15:59:18.062Z,13.33
2023-01-13T16:01:46.103Z,15.47
2023-01-13T16:04:13.153Z,12.63
2023-01-13T16:06:40.253Z,16.00
2023-01-13T16:09:07.578Z,16.83
2023-01-13T16:11:34.674Z,14.37
2023-01-13T16:14:01.671Z,15.93
2023-01-13T16:16:29.128Z,13.60
2023-01-13T16:18:56.673Z,14.10
2023-01-13T16:21:24.185Z,13.20
2023-01-13T16:23:51.989Z,14.63
2023-01-13T16:26:22.590Z,16.80
2023-01-13T16:28:51.325Z,16.23
2023-01-13T16:31:33.062Z,14.13
2023-01-13T16:34:02.295Z,15.20
2023-01-13T16:36:32.040Z,12.93
2023-01-13T16:38:59.210Z,12.93
2023-01-13T16:41:26.504Z,13.77
2023-01-13T16:43:54.212Z,14.57
2023-01-13T16:46:21.294Z,13.63
2023-01-13T16:48:49.607Z,16.23
2023-01-13T16:51:16.682Z,14.90
2023-01-13T16:53:43.807Z,17.77
2023-01-13T16:56:35.363Z,16.97
2023-01-13T16:59:08.820Z,14.13
2023-01-13T17:01:39.497Z,15.10
2023-01-13T17:04:07.210Z,16.93
2023-01-13T17:06:36.961Z,15.13
2023-01-13T17:09:06.610Z,14.57
2023-01-13T17:11:34.143Z,14.80
2023-01-13T17:14:01.169Z,12.93
2023-01-13T17:16:45.965Z,13.17
2023-01-13T17:19:13.526Z,13.27
2023-01-13T17:21:40.765Z,15.27
2023-01-13T17:24:09.666Z,14.50
2023-01-13T17:26:40.203Z,15.57
2023-01-13T17:29:11.375Z,16.10
2023-01-13T17:31:38.869Z,16.67
2023-01-13T17:34:06.219Z,15.67
2023-01-13T17:36:33.607Z,18.00
2023-01-13T17:39:00.571Z,15.60
2023-01-13T17:41:27.880Z,15.37
2023-01-13T17:43:55.089Z,15.77
2023-01-13T17:46:23.235Z,15.80
2023-01-13T17:48:52.741Z,16.37
2023-01-13T17:51:22.664Z,14.87
2023-01-13T17:53:49.797Z,13.00
2023-01-13T17:56:17.856Z,16.60
2023-01-13T17:58:46.865Z,15.23
2023-01-13T18:01:17.160Z,16.53
2023-01-13T18:03:44.597Z,15.73
2023-01-13T18:06:20.884Z,16.43
2023-01-13T18:08:48.249Z,14.57
2023-01-13T18:11:20.277Z,15.33
2023-01-13T18:13:49.902Z,13.53
2023-01-13T18:16:19.172Z,15.57
2023-01-13T18:18:48.148Z,15.87
2023-01-13T18:21:41.424Z,16.40
2023-01-13T18:24:34.723Z,13.90
2023-01-13T18:27:21.241Z,14.47
2023-01-13T18:29:53.652Z,13.90
2023-01-13T18:32:22.436Z,14.17
2023-01-13T18:34:53.978Z,18.30
2023-01-13T18:37:26.057Z,14.48
2023-01-13T18:39:53.140Z,16.97
2023-01-13T18:42:38.976Z,12.90
2023-01-13T18:45:06.351Z,13.50
2023-01-13T18:47:33.795Z,15.17
2023-01-13T18:50:00.915Z,17.73
2023-01-13T18:52:27.964Z,14.53
2023-01-13T18:54:54.966Z,15.43
2023-01-13T18:57:22.387Z,13.20
2023-01-13T18:59:49.441Z,16.63
2023-01-13T19:02:19.083Z,16.03
2023-01-13T19:04:46.730Z,13.60
2023-01-13T19:07:22.077Z,12.80
2023-01-13T19:09:52.028Z,14.73
2023-01-13T19:12:28.067Z,14.43
2023-01-13T19:14:55.733Z,13.60
2023-01-13T19:17:24.698Z,20.47
2023-01-13T19:19:54.229Z,17.87
2023-01-13T19:22:40.652Z,13.97
2023-01-13T19:25:07.952Z,14.53
2023-01-13T19:27:34.956Z,13.03
2023-01-13T19:30:02.941Z,14.63
2023-01-13T19:32:33.650Z,13.00
2023-01-13T19:35:01.155Z,13.37
2023-01-13T19:37:30.554Z,12.13
2023-01-13T19:39:59.272Z,15.27
2023-01-13T19:42:44.887Z,13.57
2023-01-13T19:45:27.795Z,13.13
2023-01-13T19:47:56.029Z,14.10
2023-01-13T19:50:23.837Z,12.80
2023-01-13T19:52:50.794Z,14.33
2023-01-13T19:55:19.784Z,13.30
2023-01-13T19:57:47.138Z,13.80
2023-01-13T20:00:20.373Z,13.90
2023-01-13T20:02:49.681Z,13.83
2023-01-13T20:05:21.330Z,13.87
2023-01-13T20:07:50.121Z,16.73
2023-01-13T20:10:19.064Z,17.93
2023-01-13T20:12:46.075Z,16.07
2023-01-13T20:15:13.064Z,15.47
2023-01-13T20:17:41.651Z,16.20
2023-01-13T20:20:10.723Z,13.97
2023-01-13T20:22:39.838Z,14.27
2023-01-13T20:25:08.282Z,15.33
2023-01-13T20:27:35.762Z,13.50
2023-01-13T20:30:02.905Z,13.53
2023-01-13T20:32:31.117Z,15.90
2023-01-13T20:34:58.107Z,14.87
2023-01-13T20:37:25.267Z,16.20
2023-01-13T20:39:52.322Z,16.33
2023-01-13T20:42:38.098Z,16.17
2023-01-13T20:45:06.032Z,16.60
2023-01-13T20:47:33.068Z,18.83
2023-01-13T20:50:00.399Z,15.87
2023-01-13T20:52:28.667Z,15.97
2023-01-13T20:54:55.786Z,16.20
2023-01-13T20:57:22.806Z,19.07
2023-01-13T20:59:49.884Z,13.93
2023-01-13T21:02:17.758Z,16.47
2023-01-13T21:04:44.809Z,19.17
2023-01-13T21:07:12.112Z,16.47
2023-01-13T21:09:39.201Z,15.77
2023-01-13T21:12:33.979Z,14.43
2023-01-13T21:15:17.333Z,13.50
2023-01-13T21:18:04.511Z,15.57
2023-01-13T21:20:33.683Z,13.77
2023-01-13T21:23:02.340Z,14.13
2023-01-13T21:25:30.520Z,18.23
2023-01-13T21:28:17.553Z,17.03
2023-01-13T21:30:46.421Z,13.20
2023-01-13T21:33:14.600Z,18.37
2023-01-13T21:35:42.406Z,20.13
2023-01-13T21:38:11.490Z,16.73
2023-01-13T21:40:38.525Z,16.77
2023-01-13T21:43:23.958Z,16.53
2023-01-13T21:46:09.573Z,17.37
2023-01-13T21:48:36.668Z,17.00
2023-01-13T21:51:03.806Z,19.00
2023-01-13T21:53:32.223Z,14.50
2023-01-13T21:56:01.019Z,13.23
2023-01-13T21:58:28.004Z,15.93
2023-01-13T22:00:55.184Z,18.63
2023-01-13T22:03:22.333Z,15.47
2023-01-13T22:05:54.884Z,18.03
2023-01-13T22:08:22.121Z,12.67
2023-01-13T22:10:57.801Z,15.53
2023-01-13T22:13:44.201Z,19.03
2023-01-13T22:16:11.581Z,15.03
2023-01-13T22:18:38.615Z,14.80
2023-01-13T22:21:05.839Z,15.03
2023-01-13T22:23:32.851Z,16.77
2023-01-13T22:26:04.420Z,19.30
2023-01-13T22:28:40.360Z,17.90
2023-01-13T22:31:12.372Z,16.30
2023-01-13T22:33:40.227Z,18.40
2023-01-13T22:36:08.520Z,14.67
2023-01-13T22:38:35.914Z,18.73
2023-01-13T22:41:06.321Z,15.83
2023-01-13T22:43:33.793Z,15.27
2023-01-13T22:46:03.789Z,15.70
2023-01-13T22:48:30.869Z,17.00
2023-01-13T22:51:07.305Z,17.27
2023-01-13T22:53:35.384Z,16.00
2023-01-13T22:56:03.097Z,14.40
2023-01-13T22:58:30.273Z,16.73
2023-01-13T23:01:08.009Z,14.20
2023-01-13T23:03:35.077Z,18.07
2023-01-13T23:06:02.290Z,16.90
2023-01-13T23:08:29.293Z,14.70
2023-01-13T23:11:09.240Z,14.63
2023-01-13T23:13:39.638Z,16.27
2023-01-13T23:16:09.619Z,16.07
2023-01-13T23:18:37.050Z,17.47
2023-01-13T23:21:10.155Z,18.70
2023-01-13T23:23:37.830Z,16.90
2023-01-13T23:26:06.665Z,17.40
2023-01-13T23:28:35.069Z,18.63
2023-01-13T23:31:07.063Z,17.33
2023-01-13T23:33:35.254Z,19.70
2023-01-13T23:36:07.049Z,19.47
2023-01-13T23:38:34.280Z,14.73
2023-01-13T23:41:01.311Z,23.13
2023-01-13T23:43:28.274Z,20.50
2023-01-13T23:46:06.923Z,18.60
2023-01-13T23:48:34.629Z,18.23
2023-01-13T23:51:04.674Z,19.90
2023-01-13T23:53:35.284Z,15.37
2023-01-13T23:56:04.299Z,16.00
2023-01-13T23:58:31.840Z,20.97
